This is the latest recevied weather packets stored in our database for station/object JR5YHL-13. If no packets are shown the sender has not sent any weather packets the latest 10 day(s).
| Time | Temp. | Humidity | Pressure | Rain* | Wind** | Luminosity | Snow |
|---|---|---|---|---|---|---|---|
| 1778222816 | 26.67° C | 25% | 1006.5 hPa | 0 mm | - | - | - |
| 1778222218 | 27.78° C | 28% | 1006.6 hPa | 0 mm | - | - | - |
| 1778221620 | 28.33° C | 29% | 1006.4 hPa | 0 mm | - | - | - |
| 1778221022 | 28.33° C | 31% | 1006.3 hPa | 0 mm | - | - | - |
| 1778220424 | 27.78° C | 35% | 1006.6 hPa | 0 mm | - | - | - |
| 1778219826 | 26.67° C | 35% | 1006.8 hPa | 0 mm | - | - | - |
| 1778219228 | 26.11° C | 36% | 1007 hPa | 0 mm | - | - | - |
| 1778218630 | 25.56° C | 37% | 1007.1 hPa | 0 mm | - | - | - |
| 1778218033 | 26.11° C | 37% | 1007.1 hPa | 0 mm | - | - | - |
| 1778217435 | 26.67° C | 38% | 1007.2 hPa | 0 mm | - | - | - |
| 1778216837 | 27.78° C | 36% | 1007.1 hPa | 0 mm | - | - | - |
| 1778216239 | 27.78° C | 38% | 1007.2 hPa | 0 mm | - | - | - |
| 1778215641 | 26.67° C | 40% | 1007.4 hPa | 0 mm | - | - | - |
| 1778215043 | 26.67° C | 39% | 1007.4 hPa | 0 mm | - | - | - |
| 1778214445 | 27.22° C | 37% | 1007.3 hPa | 0 mm | - | - | - |
| 1778213848 | 27.78° C | 39% | 1007.4 hPa | 0 mm | - | - | - |
| 1778213251 | 27.22° C | 39% | 1007.5 hPa | 0 mm | - | - | - |
| 1778212652 | 27.22° C | 42% | 1007.5 hPa | 0 mm | - | - | - |
| 1778212054 | 27.22° C | 42% | 1007.4 hPa | 0 mm | - | - | - |
| 1778211456 | 26.67° C | 44% | 1007.6 hPa | 0 mm | - | - | - |
| 1778210858 | 26.67° C | 45% | 1007.7 hPa | 0 mm | - | - | - |
| 1778210261 | 26.11° C | 46% | 1007.6 hPa | 0 mm | - | - | - |
| 1778209662 | 25.56° C | 48% | 1007.7 hPa | 0 mm | - | - | - |
| 1778209065 | 25.56° C | 49% | 1007.7 hPa | 0 mm | - | - | - |
| 1778208467 | 25.56° C | 54% | 1007.8 hPa | 0 mm | - | - | - |
* Rain latest hour (hover to see other rain measurements)
** Current wind speed in m/s (hover to see current wind gust speed)